createdAt,value
2018-12-04T00:02:16.472Z,98516.97
2018-12-04T00:04:42.456Z,98515.59
2018-12-04T00:07:08.434Z,98524.63
2018-12-04T00:09:34.396Z,98515.89
2018-12-04T00:12:00.381Z,98515.48
2018-12-04T00:19:29.637Z,98513.00
2018-12-04T00:21:55.628Z,98523.95
2018-12-04T00:24:21.576Z,98515.89
2018-12-04T00:26:47.528Z,98520.30
2018-12-04T00:29:13.486Z,98528.38
2018-12-04T00:31:39.458Z,98524.78
2018-12-04T00:34:05.414Z,98525.44
2018-12-04T00:36:31.415Z,98535.09
2018-12-04T00:38:57.376Z,98530.14
2018-12-04T00:41:23.412Z,98529.67
2018-12-04T00:43:49.399Z,98534.52
2018-12-04T00:46:15.360Z,98535.06
2018-12-04T00:48:41.344Z,98536.33
2018-12-04T00:51:07.329Z,98543.55
2018-12-04T00:53:33.300Z,98550.02
2018-12-04T00:55:59.296Z,98542.95
2018-12-04T00:58:25.279Z,98550.80
2018-12-04T01:00:51.248Z,98553.02
2018-12-04T01:03:17.221Z,98554.14
2018-12-04T01:05:43.207Z,98563.34
2018-12-04T01:08:09.179Z,98570.94
2018-12-04T01:10:35.147Z,98580.55
2018-12-04T01:13:01.132Z,98575.53
2018-12-04T01:15:27.107Z,98577.16
2018-12-04T01:17:53.053Z,98587.28
2018-12-04T01:20:19.025Z,98583.06
2018-12-04T01:22:44.985Z,98581.97
2018-12-04T01:25:10.967Z,98580.63
2018-12-04T01:27:36.926Z,98583.61
2018-12-04T01:30:02.888Z,98578.54
2018-12-04T01:32:28.889Z,98576.45
2018-12-04T01:34:54.860Z,98587.78
2018-12-04T01:37:21.466Z,98576.27
2018-12-04T01:39:47.419Z,98593.59
2018-12-04T01:42:13.419Z,98587.84
2018-12-04T01:44:39.400Z,98588.62
2018-12-04T01:47:06.605Z,98584.75
2018-12-04T01:49:32.576Z,98595.84
2018-12-04T01:51:58.585Z,98596.20
2018-12-04T01:54:24.531Z,98594.53
2018-12-04T01:56:50.581Z,98589.98
2018-12-04T01:59:16.547Z,98599.88
2018-12-04T02:01:42.571Z,98602.00
2018-12-04T02:04:08.513Z,98598.66
2018-12-04T02:06:34.510Z,98599.28
2018-12-04T02:09:00.474Z,98595.74
2018-12-04T02:11:26.423Z,98590.30
2018-12-04T02:13:52.400Z,98594.12
2018-12-04T02:16:18.399Z,98599.61
2018-12-04T02:18:44.530Z,98609.51
2018-12-04T02:21:10.495Z,98604.26
2018-12-04T02:23:36.502Z,98600.05
2018-12-04T02:26:02.464Z,98597.47
2018-12-04T02:28:28.450Z,98597.45
2018-12-04T02:30:54.436Z,98598.98
2018-12-04T02:33:20.394Z,98605.88
2018-12-04T02:35:46.343Z,98612.59
2018-12-04T02:38:12.303Z,98611.48
2018-12-04T02:40:38.284Z,98609.72
2018-12-04T02:43:04.268Z,98616.88
2018-12-04T02:45:30.280Z,98610.51
2018-12-04T02:47:56.258Z,98621.27
2018-12-04T02:50:22.287Z,98623.95
2018-12-04T02:52:48.296Z,98631.00
2018-12-04T02:55:14.293Z,98637.91
2018-12-04T02:57:40.291Z,98632.80
2018-12-04T03:00:06.410Z,98646.47
2018-12-04T03:02:32.406Z,98650.84
2018-12-04T03:04:58.377Z,98642.16
2018-12-04T03:07:24.375Z,98643.13
2018-12-04T03:09:50.353Z,98650.02
2018-12-04T03:12:16.397Z,98654.41
2018-12-04T03:14:42.363Z,98655.20
2018-12-04T03:17:08.323Z,98660.59
2018-12-04T03:19:34.291Z,98671.83
2018-12-04T03:22:00.248Z,98676.80
2018-12-04T03:24:26.261Z,98671.34
2018-12-04T03:26:52.230Z,98668.98
2018-12-04T03:29:18.725Z,98668.70
2018-12-04T03:31:44.700Z,98674.16
2018-12-04T03:34:10.671Z,98676.33
2018-12-04T03:36:36.627Z,98676.90
2018-12-04T03:39:02.664Z,98679.81
2018-12-04T03:41:28.661Z,98676.45
2018-12-04T03:43:54.598Z,98698.52
2018-12-04T03:46:20.567Z,98693.97
2018-12-04T03:48:46.522Z,98696.09
2018-12-04T03:51:12.585Z,98706.94
2018-12-04T03:53:38.595Z,98701.38
2018-12-04T03:56:04.569Z,98703.49
2018-12-04T03:58:34.733Z,98707.69
2018-12-04T04:01:00.774Z,98714.14
2018-12-04T04:03:26.813Z,98712.39
2018-12-04T04:05:52.837Z,98715.47
2018-12-04T04:08:18.940Z,98718.66
2018-12-04T04:10:44.910Z,98718.23
2018-12-04T04:13:11.030Z,98721.28
2018-12-04T04:15:37.045Z,98725.08
2018-12-04T04:18:03.067Z,98728.42
2018-12-04T04:20:29.040Z,98743.77
2018-12-04T04:22:55.039Z,98739.52
2018-12-04T04:25:21.051Z,98743.67
2018-12-04T04:27:47.792Z,98743.28
2018-12-04T04:30:13.829Z,98745.70
2018-12-04T04:32:39.796Z,98752.50
2018-12-04T04:35:05.756Z,98757.85
2018-12-04T04:37:31.737Z,98769.82
2018-12-04T04:39:57.727Z,98769.55
2018-12-04T04:42:23.722Z,98773.70
2018-12-04T04:44:49.716Z,98778.35
2018-12-04T04:47:20.967Z,98782.89
2018-12-04T04:49:47.000Z,98785.95
2018-12-04T04:54:44.646Z,98793.23
2018-12-04T04:57:10.658Z,98794.42
2018-12-04T04:59:36.612Z,98803.02
2018-12-04T05:02:02.572Z,98801.45
2018-12-04T05:04:28.509Z,98806.38
2018-12-04T05:06:54.523Z,98829.11
2018-12-04T05:09:20.516Z,98840.92
2018-12-04T05:14:20.376Z,98866.51
2018-12-04T05:16:46.453Z,98878.61
2018-12-04T05:19:12.447Z,98895.10
2018-12-04T05:21:38.442Z,98901.84
2018-12-04T05:24:04.490Z,98915.42
2018-12-04T05:26:30.493Z,98917.00
2018-12-04T05:28:56.497Z,98925.09
2018-12-04T05:31:22.594Z,98935.41
2018-12-04T05:33:48.586Z,98942.56
2018-12-04T05:36:14.580Z,98949.81
2018-12-04T05:38:40.650Z,98960.40
2018-12-04T05:41:06.686Z,98962.75
2018-12-04T05:43:32.652Z,98974.90
2018-12-04T05:45:58.706Z,98982.59
2018-12-04T05:48:24.746Z,99004.41
2018-12-04T05:50:50.816Z,99006.95
2018-12-04T05:53:16.774Z,99023.05
2018-12-04T05:55:42.812Z,99025.52
2018-12-04T05:58:08.767Z,99038.59
2018-12-04T06:00:34.742Z,99040.73
2018-12-04T06:03:00.738Z,99051.88
2018-12-04T06:05:26.726Z,99069.67
2018-12-04T06:07:52.681Z,99087.70
2018-12-04T06:10:18.660Z,99093.97
2018-12-04T06:12:44.663Z,99108.44
2018-12-04T06:15:10.631Z,99113.71
2018-12-04T06:17:36.594Z,99134.66
2018-12-04T06:20:02.596Z,99152.03
2018-12-04T06:22:28.589Z,99154.86
2018-12-04T06:24:54.596Z,99171.20
2018-12-04T06:27:20.556Z,99170.21
2018-12-04T06:29:46.599Z,99187.12
2018-12-04T06:32:12.603Z,99195.31
2018-12-04T06:34:38.649Z,99200.35
2018-12-04T06:37:04.616Z,99205.66
2018-12-04T06:39:30.577Z,99218.33
2018-12-04T06:41:56.689Z,99229.64
2018-12-04T06:44:22.810Z,99225.50
2018-12-04T06:46:48.840Z,99236.83
2018-12-04T06:49:14.824Z,99250.15
2018-12-04T06:51:40.803Z,99254.94
2018-12-04T06:54:06.756Z,99272.66
2018-12-04T06:56:32.730Z,99266.89
2018-12-04T06:58:59.375Z,99277.47
2018-12-04T07:01:25.377Z,99292.67
2018-12-04T07:03:51.362Z,99293.98
2018-12-04T07:06:17.349Z,99296.95
2018-12-04T07:08:43.312Z,99298.84
2018-12-04T07:11:09.310Z,99311.09
2018-12-04T07:13:35.301Z,99317.02
2018-12-04T07:16:01.264Z,99329.51
2018-12-04T07:18:27.330Z,99334.34
2018-12-04T07:20:54.213Z,99338.31
2018-12-04T07:23:20.193Z,99342.47
2018-12-04T07:25:46.220Z,99346.66
2018-12-04T07:28:12.197Z,99354.61
2018-12-04T07:30:38.181Z,99370.06
2018-12-04T07:33:04.193Z,99370.68
2018-12-04T07:35:30.151Z,99377.80
2018-12-04T07:37:56.885Z,99390.56
2018-12-04T07:40:22.846Z,99399.60
2018-12-04T07:42:48.906Z,99399.97
2018-12-04T07:45:14.903Z,99409.87
2018-12-04T07:47:40.893Z,99410.55
2018-12-04T07:50:06.871Z,99406.98
2018-12-04T07:52:32.889Z,99424.37
2018-12-04T07:54:58.868Z,99431.84
2018-12-04T07:57:24.858Z,99440.64
2018-12-04T07:59:50.838Z,99440.84
2018-12-04T08:02:16.800Z,99446.16
2018-12-04T08:04:42.754Z,99450.30
2018-12-04T08:07:08.721Z,99460.56
2018-12-04T08:09:34.702Z,99465.66
2018-12-04T08:12:00.706Z,99475.58
2018-12-04T08:14:26.706Z,99464.62
2018-12-04T08:16:54.214Z,99472.13
2018-12-04T08:19:20.285Z,99467.63
2018-12-04T08:21:46.296Z,99482.84
2018-12-04T08:24:12.324Z,99487.18
2018-12-04T08:26:38.284Z,99503.98
2018-12-04T08:29:04.281Z,99503.55
2018-12-04T08:31:30.293Z,99499.48
2018-12-04T08:33:56.254Z,99513.77
2018-12-04T08:36:22.289Z,99523.20
2018-12-04T08:38:49.587Z,99522.31
2018-12-04T08:41:15.625Z,99526.39
2018-12-04T08:43:41.749Z,99536.19
2018-12-04T08:46:07.783Z,99536.48
2018-12-04T08:48:33.868Z,99541.82
2018-12-04T08:50:59.816Z,99552.61
2018-12-04T08:53:25.852Z,99563.28
2018-12-04T08:55:52.557Z,99581.78
2018-12-04T08:58:19.500Z,99572.58
2018-12-04T09:00:45.549Z,99583.69
2018-12-04T09:03:12.602Z,99587.88
2018-12-04T09:05:38.638Z,99593.30
2018-12-04T09:08:09.270Z,99601.62
2018-12-04T09:10:32.682Z,99611.87
2018-12-04T09:12:58.714Z,99616.56
2018-12-04T09:15:25.077Z,99619.73
2018-12-04T09:17:51.089Z,99617.67
2018-12-04T09:20:17.145Z,99633.03
2018-12-04T09:22:43.261Z,99628.56
2018-12-04T09:25:09.280Z,99637.06
2018-12-04T09:27:35.287Z,99641.68
2018-12-04T09:30:01.360Z,99647.05
2018-12-04T09:32:27.425Z,99653.47
2018-12-04T09:34:53.379Z,99656.88
2018-12-04T09:37:19.415Z,99663.48
2018-12-04T09:39:45.447Z,99673.65
2018-12-04T09:42:11.412Z,99673.33
2018-12-04T09:44:37.408Z,99675.03
2018-12-04T09:47:03.455Z,99671.72
2018-12-04T09:49:29.569Z,99674.23
2018-12-04T09:51:55.610Z,99668.70
2018-12-04T09:54:21.612Z,99670.05
2018-12-04T09:56:47.592Z,99679.52
2018-12-04T09:59:13.614Z,99680.27
2018-12-04T10:01:39.598Z,99686.63
2018-12-04T10:04:05.594Z,99686.23
2018-12-04T10:06:31.604Z,99692.89
2018-12-04T10:08:57.604Z,99690.70
2018-12-04T10:11:23.577Z,99696.02
2018-12-04T10:13:49.617Z,99695.77
2018-12-04T10:16:15.582Z,99688.50
2018-12-04T10:18:47.485Z,99699.08
2018-12-04T10:21:09.694Z,99698.63
2018-12-04T10:23:35.671Z,99703.27
2018-12-04T10:41:09.586Z,99726.36
2018-12-04T10:43:35.616Z,99734.41
2018-12-04T10:46:01.586Z,99732.30
2018-12-04T10:48:27.549Z,99730.68
2018-12-04T10:50:53.542Z,99740.80
2018-12-04T10:53:19.521Z,99741.09
2018-12-04T10:55:45.517Z,99743.17
2018-12-04T10:58:11.540Z,99750.78
2018-12-04T11:00:37.490Z,99755.11
2018-12-04T11:03:03.508Z,99762.28
2018-12-04T11:05:29.471Z,99767.00
2018-12-04T11:07:55.507Z,99764.79
2018-12-04T11:10:21.453Z,99769.80
2018-12-04T11:12:47.414Z,99771.49
2018-12-04T11:15:13.356Z,99774.91
2018-12-04T11:20:11.145Z,99774.11
2018-12-04T11:22:37.125Z,99784.03
2018-12-04T11:25:03.100Z,99782.86
2018-12-04T11:27:29.056Z,99787.55
2018-12-04T11:29:55.035Z,99791.81
2018-12-04T11:32:21.060Z,99792.26
2018-12-04T11:34:47.017Z,99790.95
2018-12-04T11:37:13.011Z,99798.91
2018-12-04T11:39:38.951Z,99803.56
2018-12-04T11:42:04.926Z,99807.69
2018-12-04T11:44:30.976Z,99805.82
2018-12-04T11:46:56.970Z,99814.80
2018-12-04T11:49:22.926Z,99808.83
2018-12-04T11:51:48.891Z,99828.75
2018-12-04T11:54:14.838Z,99826.16
2018-12-04T11:56:40.841Z,99826.30
2018-12-04T11:59:06.806Z,99832.53
2018-12-04T12:01:32.776Z,99836.80
2018-12-04T12:03:58.734Z,99836.31
2018-12-04T12:06:24.744Z,99842.20
2018-12-04T12:08:50.752Z,99854.46
2018-12-04T12:11:16.745Z,99862.11
2018-12-04T12:13:42.705Z,99868.76
2018-12-04T12:16:08.676Z,99867.94
2018-12-04T12:18:34.621Z,99872.67
2018-12-04T12:21:00.590Z,99876.02
2018-12-04T12:23:26.542Z,99875.20
2018-12-04T12:25:52.492Z,99882.30
2018-12-04T12:28:18.470Z,99891.27
2018-12-04T12:30:44.464Z,99891.61
2018-12-04T12:33:10.484Z,99885.24
2018-12-04T12:35:36.466Z,99895.71
2018-12-04T12:38:02.690Z,99899.33
2018-12-04T12:40:28.690Z,99899.23
2018-12-04T12:42:54.678Z,99914.97
2018-12-04T12:45:20.707Z,99916.02
2018-12-04T12:47:46.697Z,99926.27
2018-12-04T12:50:12.688Z,99927.53
2018-12-04T12:52:38.696Z,99931.00
2018-12-04T12:55:04.698Z,99942.77
2018-12-04T12:57:30.732Z,99943.75
2018-12-04T12:59:56.710Z,99955.09
2018-12-04T13:02:22.681Z,99961.13
2018-12-04T13:04:48.664Z,99947.22
2018-12-04T13:07:14.680Z,99959.93
2018-12-04T13:09:41.650Z,99964.11
2018-12-04T13:12:07.676Z,99970.48
2018-12-04T13:14:33.657Z,99983.59
2018-12-04T13:16:59.651Z,99980.19
2018-12-04T13:19:25.639Z,99986.14
2018-12-04T13:21:51.598Z,99986.98
2018-12-04T13:24:17.567Z,99987.80
2018-12-04T13:26:43.562Z,99998.75
2018-12-04T13:29:10.252Z,100007.20
2018-12-04T13:31:36.224Z,100003.85
2018-12-04T13:34:02.218Z,100003.84
2018-12-04T13:36:28.183Z,100003.40
2018-12-04T13:38:54.230Z,100013.95
2018-12-04T13:41:20.222Z,100013.91
2018-12-04T13:43:46.181Z,100019.87
2018-12-04T13:46:12.167Z,100019.06
2018-12-04T13:48:38.145Z,100019.45
2018-12-04T13:51:04.156Z,100033.81
2018-12-04T13:53:30.182Z,100042.64
2018-12-04T13:55:56.171Z,100043.06
2018-12-04T13:58:22.208Z,100044.34
2018-12-04T14:00:48.190Z,100048.59
2018-12-04T14:03:14.205Z,100054.92
2018-12-04T14:05:40.339Z,100062.52
2018-12-04T14:08:06.567Z,100062.07
2018-12-04T14:10:32.664Z,100065.04
2018-12-04T14:12:58.699Z,100069.67
2018-12-04T14:15:24.691Z,100075.14
2018-12-04T14:17:50.707Z,100072.24
2018-12-04T14:20:16.807Z,100078.16
2018-12-04T14:22:42.906Z,100078.53
2018-12-04T14:25:08.986Z,100081.47
2018-12-04T14:27:35.093Z,100086.99
2018-12-04T14:32:34.318Z,100092.03
2018-12-04T14:35:00.439Z,100098.41
2018-12-04T14:37:26.488Z,100110.23
2018-12-04T14:39:52.539Z,100116.50
2018-12-04T14:42:20.861Z,100122.83
2018-12-04T14:44:47.161Z,100122.83
2018-12-04T14:47:13.213Z,100126.16
2018-12-04T14:49:39.342Z,100131.22
2018-12-04T14:52:05.478Z,100141.37
2018-12-04T14:54:31.495Z,100149.41
2018-12-04T14:56:57.475Z,100151.84
2018-12-04T14:59:23.453Z,100157.31
2018-12-04T15:01:49.438Z,100158.56
2018-12-04T15:04:15.443Z,100165.67
2018-12-04T15:06:44.563Z,100166.13
2018-12-04T15:09:10.743Z,100170.82
2018-12-04T15:11:36.909Z,100185.52
2018-12-04T15:14:03.034Z,100180.06
2018-12-04T15:16:29.131Z,100181.34
2018-12-04T15:18:55.304Z,100187.95
2018-12-04T15:21:22.284Z,100199.80
2018-12-04T15:23:48.309Z,100196.06
2018-12-04T15:26:14.311Z,100211.30
2018-12-04T15:28:40.327Z,100219.58
2018-12-04T15:31:07.353Z,100219.63
2018-12-04T15:36:07.197Z,100233.70
2018-12-04T15:38:33.237Z,100234.86
2018-12-04T15:40:59.354Z,100241.95
2018-12-04T15:43:25.401Z,100254.67
2018-12-04T15:45:51.565Z,100254.75
2018-12-04T15:48:18.649Z,100271.85
2018-12-04T15:50:44.650Z,100270.49
2018-12-04T15:53:10.738Z,100271.84
2018-12-04T15:55:36.813Z,100284.42
2018-12-04T15:58:02.816Z,100287.61
2018-12-04T16:00:29.911Z,100285.08
2018-12-04T16:02:55.948Z,100286.95
2018-12-04T16:05:21.997Z,100287.61
2018-12-04T16:07:48.034Z,100293.68
2018-12-04T16:10:14.034Z,100291.70
2018-12-04T16:12:40.202Z,100297.59
2018-12-04T16:15:06.266Z,100305.48
2018-12-04T16:17:32.237Z,100303.38
2018-12-04T16:19:58.240Z,100298.78
2018-12-04T16:22:25.524Z,100306.00
2018-12-04T16:24:51.665Z,100317.45
2018-12-04T16:27:17.776Z,100321.59
2018-12-04T16:29:43.905Z,100329.41
2018-12-04T16:34:51.980Z,100341.38
2018-12-04T16:37:18.043Z,100335.16
2018-12-04T16:39:44.266Z,100343.95
2018-12-04T16:42:10.982Z,100346.67
2018-12-04T16:44:37.039Z,100354.31
2018-12-04T16:47:03.184Z,100361.99
2018-12-04T16:49:33.853Z,100368.12
2018-12-04T16:52:00.016Z,100375.05
2018-12-04T16:54:26.103Z,100373.05
2018-12-04T16:56:53.147Z,100370.82
2018-12-04T16:59:20.579Z,100374.64
2018-12-04T17:01:46.685Z,100375.47
2018-12-04T17:04:13.786Z,100383.54
2018-12-04T17:06:40.006Z,100385.67
2018-12-04T17:11:37.934Z,100402.00
2018-12-04T17:14:04.700Z,100403.52
2018-12-04T17:16:30.831Z,100423.47
2018-12-04T17:18:56.969Z,100424.77
2018-12-04T17:21:23.114Z,100427.66
2018-12-04T17:23:51.522Z,100434.25
2018-12-04T17:26:22.753Z,100434.84
2018-12-04T17:28:50.336Z,100439.33
2018-12-04T17:31:19.526Z,100447.33
2018-12-04T17:33:47.279Z,100455.77
2018-12-04T17:36:20.724Z,100448.23
2018-12-04T17:38:47.907Z,100454.73
2018-12-04T17:41:14.100Z,100460.86
2018-12-04T17:43:40.230Z,100456.64
2018-12-04T17:46:06.294Z,100462.02
2018-12-04T17:48:32.422Z,100475.20
2018-12-04T17:50:58.617Z,100491.10
2018-12-04T17:53:24.862Z,100509.00
2018-12-04T17:55:52.071Z,100524.25
2018-12-04T17:58:19.399Z,100530.36
2018-12-04T18:00:45.495Z,100535.63
2018-12-04T18:03:11.705Z,100543.09
2018-12-04T18:05:40.322Z,100536.97
2018-12-04T18:08:06.455Z,100532.53
2018-12-04T18:10:34.040Z,100523.19
2018-12-04T18:13:00.151Z,100523.38
2018-12-04T18:15:28.322Z,100522.91
2018-12-04T18:17:59.222Z,100523.72
2018-12-04T18:20:25.383Z,100516.31
2018-12-04T18:22:52.125Z,100527.96
2018-12-04T18:25:18.936Z,100530.17
2018-12-04T18:27:50.358Z,100541.93
2018-12-04T18:30:20.662Z,100542.58
2018-12-04T18:32:46.703Z,100543.77
2018-12-04T18:35:12.744Z,100540.39
2018-12-04T18:37:39.220Z,100548.24
2018-12-04T18:40:05.311Z,100550.02
2018-12-04T18:42:31.390Z,100549.55
2018-12-04T18:44:58.310Z,100555.70
2018-12-04T18:47:24.509Z,100557.65
2018-12-04T18:49:52.218Z,100560.12
2018-12-04T18:52:19.344Z,100562.92
2018-12-04T18:54:45.842Z,100567.86
2018-12-04T18:57:12.132Z,100567.44
2018-12-04T18:59:38.906Z,100559.59
2018-12-04T19:02:07.966Z,100563.38
2018-12-04T19:04:35.255Z,100564.41
2018-12-04T19:07:01.401Z,100567.41
2018-12-04T19:09:27.403Z,100563.59
2018-12-04T19:11:53.393Z,100568.45
2018-12-04T19:14:19.883Z,100573.50
2018-12-04T19:16:46.503Z,100576.94
2018-12-04T19:19:13.418Z,100572.67
2018-12-04T19:21:39.447Z,100581.23
2018-12-04T19:24:05.594Z,100581.47
2018-12-04T19:26:32.548Z,100587.90
2018-12-04T19:28:58.779Z,100595.81
2018-12-04T19:31:24.874Z,100592.22
2018-12-04T19:33:50.930Z,100594.31
2018-12-04T19:36:17.200Z,100593.83
2018-12-04T19:38:45.388Z,100599.92
2018-12-04T19:41:14.102Z,100605.89
2018-12-04T19:43:40.494Z,100601.91
2018-12-04T19:46:07.469Z,100611.98
2018-12-04T19:48:33.594Z,100615.40
2018-12-04T19:50:59.773Z,100616.20
2018-12-04T19:53:26.833Z,100618.44
2018-12-04T19:55:52.949Z,100619.52
2018-12-04T19:58:19.170Z,100625.83
2018-12-04T20:03:20.396Z,100637.56
2018-12-04T20:05:46.582Z,100640.27
2018-12-04T20:08:12.778Z,100645.16
2018-12-04T20:10:38.992Z,100645.59
2018-12-04T20:13:05.194Z,100654.20
2018-12-04T20:15:31.429Z,100657.31
2018-12-04T20:17:57.545Z,100662.89
2018-12-04T20:20:23.704Z,100660.75
2018-12-04T20:22:49.796Z,100661.26
2018-12-04T20:40:31.546Z,100686.61
2018-12-04T20:42:57.452Z,100688.03
2018-12-04T20:45:23.699Z,100684.77
2018-12-04T20:47:50.150Z,100685.78
2018-12-04T20:50:16.288Z,100689.50
2018-12-04T20:52:42.494Z,100690.35
2018-12-04T20:55:09.210Z,100696.88
2018-12-04T20:57:35.625Z,100703.58
2018-12-04T21:00:01.804Z,100709.21
2018-12-04T21:02:28.066Z,100715.02
2018-12-04T21:04:54.310Z,100716.56
2018-12-04T21:09:55.291Z,100716.50
2018-12-04T21:12:21.445Z,100721.16
2018-12-04T21:14:47.637Z,100723.41
2018-12-04T21:17:13.815Z,100733.16
2018-12-04T21:19:39.879Z,100736.08
2018-12-04T21:22:06.013Z,100732.08
2018-12-04T21:24:32.136Z,100732.11
2018-12-04T21:26:58.251Z,100729.59
2018-12-04T21:29:24.356Z,100736.49
2018-12-04T21:31:50.589Z,100740.67
2018-12-04T21:34:16.717Z,100744.19
2018-12-04T21:36:48.577Z,100745.48
2018-12-04T21:39:14.744Z,100744.52
2018-12-04T21:41:40.855Z,100748.66
2018-12-04T21:44:08.031Z,100742.59
2018-12-04T21:46:34.106Z,100739.61
2018-12-04T21:49:00.183Z,100742.30
2018-12-04T21:51:27.966Z,100751.12
2018-12-04T21:53:54.229Z,100758.95
2018-12-04T21:56:20.258Z,100762.87
2018-12-04T21:58:46.343Z,100771.05
2018-12-04T22:01:12.404Z,100770.81
2018-12-04T22:03:38.577Z,100777.95
2018-12-04T22:06:04.741Z,100781.00
2018-12-04T22:08:30.840Z,100780.19
2018-12-04T22:10:56.926Z,100789.55
2018-12-04T22:13:23.033Z,100789.08
2018-12-04T22:15:49.784Z,100799.00
2018-12-04T22:18:15.908Z,100808.17
2018-12-04T22:20:41.975Z,100809.95
2018-12-04T22:23:08.011Z,100812.80
2018-12-04T22:25:34.042Z,100812.16
2018-12-04T22:28:00.094Z,100815.75
2018-12-04T22:30:26.141Z,100822.48
2018-12-04T22:32:52.173Z,100824.11
2018-12-04T22:35:18.208Z,100823.20
2018-12-04T22:37:44.268Z,100827.59
2018-12-04T22:40:10.391Z,100821.30
2018-12-04T22:42:36.479Z,100828.71
2018-12-04T22:45:02.599Z,100826.19
2018-12-04T22:47:28.683Z,100823.78
2018-12-04T22:49:55.006Z,100828.49
2018-12-04T22:52:21.075Z,100830.41
2018-12-04T22:54:47.141Z,100828.20
2018-12-04T22:57:13.208Z,100824.36
2018-12-04T22:59:39.261Z,100821.44
2018-12-04T23:02:05.367Z,100826.98
2018-12-04T23:04:31.437Z,100831.73
2018-12-04T23:06:57.502Z,100823.64
2018-12-04T23:09:23.628Z,100825.16
2018-12-04T23:11:49.657Z,100827.09
2018-12-04T23:14:15.705Z,100829.00
2018-12-04T23:16:41.769Z,100825.19
2018-12-04T23:19:07.802Z,100823.56
2018-12-04T23:21:33.834Z,100829.42
2018-12-04T23:23:59.881Z,100824.18
2018-12-04T23:26:25.962Z,100827.13
2018-12-04T23:28:51.993Z,100829.97
2018-12-04T23:31:18.022Z,100841.02
2018-12-04T23:33:44.079Z,100839.48
2018-12-04T23:36:10.129Z,100837.32
2018-12-04T23:38:36.156Z,100839.30
2018-12-04T23:41:02.169Z,100840.27
2018-12-04T23:43:28.208Z,100829.08
2018-12-04T23:45:54.256Z,100840.81
2018-12-04T23:48:20.335Z,100842.55
2018-12-04T23:50:46.382Z,100836.27
2018-12-04T23:53:12.448Z,100847.61
2018-12-04T23:55:38.519Z,100837.57
2018-12-04T23:58:04.585Z,100837.53
